Nast, Colorado
Current Conditions -  °F | °C
As of 1:53 PM on Saturday 25 Oct 2014 (Local Time) from KLXV Reporting Station
Clear Clear  
Wind Chill: 61°   Ceiling: Unl
Heat Index: 61°   Visibility: 10mi
Dew Point:   Wind: 8mph
Humidity: 10%   Direction: 190°S
Pressure: 30.41"   Gusts: NA
Location:  39.3236°N, 106.55°W
Report Text: KLXV 251953Z AUTO 19007KT 150V230 10SM CLR 16/M16 A3041 RMK AO2 SLP169 T01611161
Loading
Personal Weather Stations






























Interactive Weather Map
Tropical Storm Tracking
New forecast layout! Learn more

10-Day Weather Forecast

Advertisements
Track Severe Weather on mobile